Blowing Rock, NC

3:16 AM EDT on September 03, 2015 (GMT -0400)
Coffey Gap | | Change Station
CLOSE
Current Station
Personal Weather Station
Location: Blowing Rock, NC
Elevation: 3484 ft
Nearby Weather Stations

Elev 3484 ft 36.12 °N, 81.72 °W | Updated 1 minute ago

Fog
Fog
59.9 °F
Feels Like 59.9 °F
N
0.0
Wind Variable Wind from North
Gusts 0.0 mph

Today
High -- | Low -- °F
--% Chance of Precip.
Yesterday
High -- | Low -- °F
Precip. -- in
6:59 AM 7:52 PM
Waning Gibbous, 73% visible
Pressure 30.14 in
Visibility 1.2 miles
Clouds
Dew Point 58 °F
Humidity 93%
Rainfall 0.00 in
Snow Depth Not available.
UV Not available.
Pollen 9.00 out of 12
Air Quality Not available.
Flu Activity Not available.
METAR KTNB 030655Z AUTO 00000KT 1 1/4SM BR VV007 15/15 A3014 RMK AO2 T01530153
Pressure 30.14 in
Visibility 1.2 miles
Clouds
Dew Point 58 °F
Humidity 93%
Rainfall 0.00 in
Snow Depth Not available.
UV Not available.
Pollen 9.00 out of 12
Air Quality Not available.
Flu Activity Not available.
METAR KTNB 030655Z AUTO 00000KT 1 1/4SM BR VV007 15/15 A3014 RMK AO2 T01530153

10-Day Weather Forecast

×

Almanac

Astronomy

Sep. 03, 2015 Rise Set
Actual Time
Civil Twilight
Nautical Twilight
Astronomical Twilight
Moon
Length of Visible Light
Length of Day
Tomorrow will be .
, % of the Moon is Illuminated

Today's Extremes

State Highs State Lows

Community

WunderPhotos

Upload Photos

1,851,915 photos uploaded!

WunderBlogs® & News

Nearby

Air Quality

  Air Quality AQ Index Pollutant
Not available.

Snow Depth

Station Depth Elevation

Earthquake Activity

City Distance Mag. Time & Date
Minimum magnitude displayed is 2.5.

Coastal Water Temperatures

Place Temperature

Stations

Nearby Weather Stations

Station Location Temp. Windchill Dew Point Humidity Wind Precip. Elev Updated Type